Time;durP1;ratioP1;P1;durP2;ratioP2;P2;SDS_P1;SDS_P2;PMS_P1;PMS_P2;Temp;Humidity;BMP_temperature;BMP_pressure;BME280_temperature;BME280_humidity;BME280_pressure;Samples;Min_cycle;Max_cycle;Signal;HPM_P1;HPM_P2
2023/08/25 03:27:08;;;;;;;;;;;;;;;;;;;;;
2023/08/25 05:01:24;;;;;;;18.53;11.20;;;;;;;25.88;70.35;98908.88;5128383;23;20244;-94
2023/08/25 05:08:22;;;;;;;;;;;;;;;;;;;;;
2023/08/25 05:10:48;;;;;;;17.87;11.10;;;;;;;26.18;70.14;98915.94;4814887;29;20196;-93
2023/08/25 05:13:15;;;;;;;18.20;10.83;;;;;;;26.22;70.82;98913.75;4811164;29;20272;-93
2023/08/25 05:15:47;;;;;;;18.50;11.43;;;;;;;26.39;70.08;98925.97;4838875;29;20197;-93
2023/08/25 05:18:25;;;;;;;;;;;;;;;;;;;;;
2023/08/25 05:21:05;;;;;;;17.03;11.70;;;;;;;26.64;69.76;98937.25;4864048;29;20218;-93
2023/08/25 05:24:22;;;;;;;16.10;10.97;;;;;;;26.79;69.50;98940.78;4864117;29;20164;-93
2023/08/25 07:44:25;;;;;;;11.07;6.47;;;;;;;34.24;43.27;98952.00;4688638;30;20222;-96
2023/08/25 08:04:30;;;;;;;12.82;8.02;;;;;;;34.46;41.05;98950.31;4612003;30;20291;-95
2023/08/25 08:07:02;;;;;;;11.48;7.20;;;;;;;34.48;41.40;98940.03;4630786;30;20242;-95
2023/08/25 08:17:28;;;;;;;12.07;8.00;;;;;;;35.22;41.86;98924.69;4653526;30;20205;-94
2023/08/25 08:23:40;;;;;;;7.78;5.63;;;;;;;35.75;39.01;98927.84;4715144;30;20262;-95
2023/08/25 08:26:53;;;;;;;10.38;6.20;;;;;;;35.73;39.56;98924.53;4719714;30;20272;-95
2023/08/25 08:37:04;;;;;;;;;;;;;;;;;;;;;
2023/08/25 08:43:38;;;;;;;;;;;;;;;;;;;;;
2023/08/25 08:57:21;;;;;;;;;;;;;;;;;;;;;
2023/08/25 09:00:22;;;;;;;;;;;;;;;;;;;;;
2023/08/25 09:03:03;;;;;;;7.63;5.22;;;;;;;37.15;35.65;98907.44;4562125;31;20226;-93
2023/08/25 10:02:12;;;;;;;7.85;5.22;;;;;;;38.61;34.33;98853.81;4618000;30;20253;-93
2023/08/25 10:08:08;;;;;;;6.35;4.20;;;;;;;38.65;33.67;98855.78;4667175;30;20292;-93
2023/08/25 10:11:14;;;;;;;;;;;;;;;;;;;;;
2023/08/25 10:17:37;;;;;;;8.85;4.82;;;;;;;38.17;32.45;98845.13;4597148;31;20202;-92
2023/08/25 10:20:07;;;;;;;5.70;4.15;;;;;;;38.70;31.44;98833.03;4721905;30;20236;-93
2023/08/25 10:22:34;;;;;;;7.22;3.72;;;;;;;38.88;32.20;98829.84;4749726;30;20207;-92
2023/08/25 10:25:03;;;;;;;5.60;4.20;;;;;;;38.74;32.28;98817.69;4755580;30;20268;-91
2023/08/25 10:27:32;;;;;;;9.45;5.00;;;;;;;38.98;32.28;98818.06;4762097;30;20652;-92
2023/08/25 10:30:00;;;;;;;7.00;4.95;;;;;;;39.01;31.50;98820.25;4752407;30;20283;-91
2023/08/25 10:32:51;;;;;;;7.07;4.70;;;;;;;39.04;32.52;98811.50;4765052;30;20272;-92
2023/08/25 10:35:36;;;;;;;10.15;5.25;;;;;;;39.10;31.49;98813.94;4755058;30;20706;-93
2023/08/25 10:38:02;;;;;;;7.60;5.00;;;;;;;39.44;31.10;98814.25;4773706;29;20526;-94
2023/08/25 10:40:45;;;;;;;7.57;5.43;;;;;;;38.90;29.64;98804.88;4787581;30;20238;-93
2023/08/25 10:43:11;;;;;;;6.47;4.60;;;;;;;39.03;31.52;98805.19;4788139;30;20194;-93
2023/08/25 10:45:38;;;;;;;6.57;4.78;;;;;;;39.40;30.74;98815.09;4786692;30;20192;-92
2023/08/25 10:48:06;;;;;;;8.52;5.68;;;;;;;39.51;29.47;98814.00;4787415;30;20282;-91
2023/08/25 10:50:33;;;;;;;7.60;4.95;;;;;;;39.20;30.93;98808.53;4788310;30;20187;-91
2023/08/25 10:53:00;;;;;;;6.97;4.88;;;;;;;39.34;30.86;98807.97;4789002;30;20191;-93
2023/08/25 10:55:33;;;;;;;9.85;5.65;;;;;;;38.99;30.97;98798.59;4789182;30;20191;-92
2023/08/25 10:58:06;;;;;;;6.45;4.60;;;;;;;38.71;31.62;98790.84;4773022;30;20193;-91
2023/08/25 11:00:43;;;;;;;8.25;4.57;;;;;;;38.77;31.53;98799.94;4787828;29;20207;-91
2023/08/25 11:03:09;;;;;;;8.68;5.72;;;;;;;39.01;32.46;98790.94;4772853;30;20211;-92
2023/08/25 11:05:44;;;;;;;7.72;4.90;;;;;;;39.52;30.82;98797.25;4772811;30;20206;-92
2023/08/25 11:08:27;;;;;;;7.55;4.80;;;;;;;39.44;30.11;98794.25;4788610;30;20659;-91
2023/08/25 11:11:14;;;;;;;9.30;5.32;;;;;;;39.11;31.09;98795.59;4788781;30;20201;-92
2023/08/25 11:13:42;;;;;;;9.40;5.78;;;;;;;39.46;30.40;98792.06;4772711;30;20186;-92
2023/08/25 11:16:11;;;;;;;10.77;5.32;;;;;;;39.36;29.74;98790.16;4788557;30;20719;-93
2023/08/25 11:18:39;;;;;;;6.15;4.63;;;;;;;39.28;29.43;98785.22;4772932;30;20199;-93
2023/08/25 11:21:06;;;;;;;7.18;4.95;;;;;;;39.41;30.48;98776.44;4772584;30;20658;-92
2023/08/25 11:23:36;;;;;;;9.38;5.07;;;;;;;39.64;30.95;98778.63;4788370;30;20191;-93
2023/08/25 11:26:03;;;;;;;8.65;5.35;;;;;;;39.99;29.57;98768.66;4788496;29;20255;-92
2023/08/25 11:28:29;;;;;;;10.10;5.50;;;;;;;40.17;28.32;98771.63;4788355;30;20262;-92
2023/08/25 11:30:57;;;;;;;5.82;4.80;;;;;;;39.97;28.95;98768.09;4788667;30;20190;-92
2023/08/25 11:33:25;;;;;;;8.65;4.60;;;;;;;40.02;28.68;98768.09;4772441;30;20191;-93
2023/08/25 11:35:56;;;;;;;7.13;4.53;;;;;;;40.31;29.35;98756.16;4772409;30;20534;-92
2023/08/25 11:38:23;;;;;;;9.50;5.15;;;;;;;40.58;28.29;98757.69;4788362;29;20325;-92
2023/08/25 11:40:54;;;;;;;8.57;4.78;;;;;;;40.62;28.63;98753.28;4772437;30;20222;-92
2023/08/25 11:43:26;;;;;;;6.00;4.38;;;;;;;40.79;28.85;98745.47;4788954;30;20171;-93
2023/08/25 11:45:53;;;;;;;5.68;4.15;;;;;;;40.16;27.27;98747.19;4788067;30;20183;-90
2023/08/25 11:48:20;;;;;;;7.13;4.97;;;;;;;40.05;29.25;98746.41;4787895;30;20198;-92
2023/08/25 11:50:47;;;;;;;5.72;3.97;;;;;;;40.64;27.58;98738.16;4788629;30;20527;-93
2023/08/25 11:53:14;;;;;;;5.25;3.80;;;;;;;40.80;28.12;98730.63;4788654;30;20187;-92
2023/08/25 11:55:39;;;;;;;7.65;4.85;;;;;;;41.16;27.69;98729.25;4788325;30;20187;-93
2023/08/25 11:58:07;;;;;;;6.32;4.68;;;;;;;40.90;27.24;98733.31;4772413;30;20225;-92
2023/08/25 12:00:37;;;;;;;7.53;4.40;;;;;;;40.65;28.50;98728.78;4772044;30;20221;-92
2023/08/25 12:03:12;;;;;;;6.07;4.10;;;;;;;41.01;27.78;98724.69;4771940;30;20190;-92
2023/08/25 12:05:39;;;;;;;6.90;4.50;;;;;;;41.25;27.62;98724.75;4772035;30;20281;-91
2023/08/25 12:08:04;;;;;;;6.38;4.15;;;;;;;41.40;26.42;98719.16;4787736;30;20195;-92
2023/08/25 12:10:35;;;;;;;5.00;3.65;;;;;;;41.55;27.30;98726.41;4787783;29;20183;-92
2023/08/25 12:13:01;;;;;;;5.35;3.25;;;;;;;41.19;25.55;98717.69;4775744;30;20255;-92
2023/08/25 12:15:42;;;;;;;5.80;3.42;;;;;;;41.01;26.38;98715.66;4775945;30;20205;-93
2023/08/25 12:18:12;;;;;;;5.88;3.20;;;;;;;41.00;26.83;98703.00;4775493;30;20191;-92
2023/08/25 12:20:43;;;;;;;5.35;3.85;;;;;;;41.16;27.08;98703.66;4791873;30;20234;-93
2023/08/25 12:23:10;;;;;;;5.75;3.72;;;;;;;41.48;26.98;98710.28;4790490;30;20226;-94
2023/08/25 12:25:37;;;;;;;11.65;5.03;;;;;;;41.55;26.04;98704.41;4775317;30;20195;-92
2023/08/25 12:28:04;;;;;;;5.78;4.35;;;;;;;41.89;25.84;98699.63;4790397;30;20191;-93
2023/08/25 12:30:31;;;;;;;6.35;3.63;;;;;;;41.78;25.82;98692.59;4791138;30;20183;-94
2023/08/25 12:32:57;;;;;;;5.38;3.28;;;;;;;41.59;26.09;98688.97;4791164;30;20195;-93
2023/08/25 12:35:23;;;;;;;4.68;3.40;;;;;;;41.82;25.55;98693.66;4775352;30;20190;-92
2023/08/25 12:37:48;;;;;;;4.90;3.25;;;;;;;41.53;26.16;98696.44;4791297;30;20208;-94
2023/08/25 12:40:14;;;;;;;4.88;3.45;;;;;;;41.40;26.38;98688.06;4789880;30;20219;-92
2023/08/25 12:42:40;;;;;;;4.63;3.53;;;;;;;41.36;26.14;98690.56;4790971;30;20187;-92
2023/08/25 12:45:08;;;;;;;7.30;4.10;;;;;;;41.19;26.97;98684.66;4775035;30;20203;-92
2023/08/25 12:47:34;;;;;;;5.03;3.83;;;;;;;41.60;27.42;98685.06;4774960;30;20187;-93
2023/08/25 12:50:00;;;;;;;7.03;4.07;;;;;;;41.38;27.45;98679.28;4790995;30;20235;-92
2023/08/25 12:52:31;;;;;;;5.45;3.65;;;;;;;41.08;25.84;98677.63;4790711;30;20179;-93
2023/08/25 12:54:58;;;;;;;8.60;3.55;;;;;;;41.01;27.01;98677.16;4790042;30;20856;-92
2023/08/25 12:57:25;;;;;;;5.10;3.83;;;;;;;41.46;25.89;98676.69;4790984;30;20187;-92
2023/08/25 12:59:50;;;;;;;7.38;3.15;;;;;;;41.54;26.79;98670.56;4790544;30;20803;-92
2023/08/25 13:02:17;;;;;;;6.40;3.15;;;;;;;41.56;24.86;98673.81;4790257;29;20263;-91
2023/08/25 13:04:44;;;;;;;5.82;3.38;;;;;;;41.65;25.02;98666.56;4790948;30;20179;-90
2023/08/25 13:07:10;;;;;;;5.28;3.63;;;;;;;41.82;25.42;98674.41;4790915;30;20180;-91
2023/08/25 13:09:36;;;;;;;5.93;3.45;;;;;;;41.96;25.60;98663.44;4790460;29;20187;-92
2023/08/25 13:12:04;;;;;;;9.82;3.55;;;;;;;42.16;24.80;98652.22;4790382;30;20175;-91
2023/08/25 13:14:31;;;;;;;5.50;3.35;;;;;;;41.74;25.11;98654.94;4797228;29;20217;-91
2023/08/25 13:16:58;;;;;;;7.07;3.50;;;;;;;41.72;25.37;98649.75;4808438;29;20285;-92
2023/08/25 13:19:24;;;;;;;5.82;3.70;;;;;;;41.55;24.12;98652.09;4792515;29;20561;-92
2023/08/25 13:21:52;;;;;;;6.07;3.13;;;;;;;41.29;26.33;98650.72;4808404;29;20301;-91
2023/08/25 13:24:19;;;;;;;5.47;3.83;;;;;;;41.75;24.95;98649.13;4791567;29;20202;-92
2023/08/25 13:26:44;;;;;;;5.35;3.10;;;;;;;41.89;24.82;98647.31;4808208;29;20182;-91
2023/08/25 13:29:11;;;;;;;4.38;3.30;;;;;;;41.53;24.76;98648.84;4807192;29;20254;-90
2023/08/25 13:31:38;;;;;;;4.70;3.17;;;;;;;41.40;24.33;98636.59;4807029;29;20186;-91
2023/08/25 13:34:03;;;;;;;5.60;3.58;;;;;;;41.64;24.54;98640.16;4808252;29;20201;-92
2023/08/25 13:36:30;;;;;;;5.47;3.00;;;;;;;41.95;24.00;98640.63;4792106;29;20634;-92
2023/08/25 13:38:57;;;;;;;4.93;3.13;;;;;;;41.96;23.83;98633.97;4807727;29;20230;-91
2023/08/25 13:41:23;;;;;;;5.93;3.55;;;;;;;41.69;24.15;98634.56;4791648;29;20259;-91
2023/08/25 13:43:49;;;;;;;5.50;3.45;;;;;;;41.74;24.68;98631.00;4791819;29;20194;-91
2023/08/25 13:46:16;;;;;;;6.70;3.40;;;;;;;42.04;24.85;98625.06;4807451;29;20274;-90
2023/08/25 13:48:43;;;;;;;4.53;3.22;;;;;;;41.94;24.33;98630.72;4807668;29;20189;-91
2023/08/25 13:51:08;;;;;;;7.13;3.22;;;;;;;42.26;24.14;98632.75;4806536;29;20183;-91
2023/08/25 13:53:37;;;;;;;5.72;3.85;;;;;;;42.28;23.63;98625.00;4806077;29;20194;-91
2023/08/25 13:56:03;;;;;;;5.20;3.28;;;;;;;42.33;24.11;98630.44;4806874;29;20527;-91
2023/08/25 13:58:29;;;;;;;4.97;2.95;;;;;;;42.25;24.27;98625.59;4807616;29;20178;-91
2023/08/25 14:00:54;;;;;;;4.20;2.85;;;;;;;42.32;24.54;98626.06;4807372;29;20217;-91
2023/08/25 14:03:20;;;;;;;6.57;3.20;;;;;;;42.23;23.91;98622.34;4791488;29;20186;-91
2023/08/25 14:05:47;;;;;;;5.75;3.30;;;;;;;42.36;23.19;98615.25;4807339;29;20183;-90
2023/08/25 14:08:12;;;;;;;5.95;3.28;;;;;;;42.25;24.36;98609.06;4807217;29;20221;-91
2023/08/25 14:10:39;;;;;;;4.63;3.13;;;;;;;42.14;23.88;98616.66;4807312;29;20174;-90
2023/08/25 14:13:08;;;;;;;5.72;3.15;;;;;;;42.40;24.02;98616.31;4807087;29;20195;-91
2023/08/25 14:15:34;;;;;;;4.93;2.80;;;;;;;42.57;24.75;98613.84;4807453;29;20640;-90
2023/08/25 14:18:01;;;;;;;5.78;3.45;;;;;;;42.64;23.89;98623.34;4791152;29;20186;-90
2023/08/25 14:20:27;;;;;;;4.38;2.70;;;;;;;42.59;22.64;98620.69;4807060;29;20202;-90
2023/08/25 14:22:54;;;;;;;5.55;2.85;;;;;;;42.55;24.25;98627.09;4807085;29;20276;-90
2023/08/25 14:25:21;;;;;;;4.40;3.13;;;;;;;42.26;23.82;98613.47;4807004;29;20252;-91
2023/08/25 14:27:48;;;;;;;8.68;3.47;;;;;;;42.31;24.11;98615.34;4806844;29;20304;-91
2023/08/25 14:30:15;;;;;;;6.05;3.85;;;;;;;42.09;23.64;98604.88;4806925;29;20720;-91
2023/08/25 14:32:40;;;;;;;4.53;3.08;;;;;;;42.15;24.15;98603.72;4806816;29;20675;-90
2023/08/25 14:35:07;;;;;;;5.75;3.20;;;;;;;42.28;24.51;98608.47;4806878;29;20187;-90
2023/08/25 14:37:34;;;;;;;5.22;3.00;;;;;;;42.37;24.67;98603.13;4807310;29;20175;-92
2023/08/25 14:40:00;;;;;;;4.60;3.42;;;;;;;42.30;25.45;98595.22;4806700;29;20229;-92
2023/08/25 14:42:27;;;;;;;7.15;4.22;;;;;;;42.43;24.11;98615.72;4790704;29;20217;-90
2023/08/25 14:44:54;;;;;;;5.82;3.42;;;;;;;42.52;23.55;98616.66;4805842;29;20182;-91
2023/08/25 14:47:20;;;;;;;5.95;3.45;;;;;;;42.62;23.00;98613.75;4806581;29;20606;-90
2023/08/25 14:49:48;;;;;;;7.22;4.38;;;;;;;42.51;23.92;98607.56;4807047;29;20222;-92
2023/08/25 14:52:18;;;;;;;6.82;3.75;;;;;;;42.50;24.29;98605.09;4806868;29;20178;-91
2023/08/25 14:54:45;;;;;;;7.05;4.68;;;;;;;42.51;23.94;98604.00;4806913;29;20285;-90
2023/08/25 14:57:12;;;;;;;6.80;4.57;;;;;;;42.39;23.59;98607.22;4807170;29;20178;-90
2023/08/25 14:59:39;;;;;;;5.68;4.57;;;;;;;42.23;23.35;98606.63;4806613;29;20197;-91
2023/08/25 15:02:04;;;;;;;8.25;4.35;;;;;;;42.28;23.81;98604.91;4806701;29;20190;-90
2023/08/25 15:04:30;;;;;;;11.85;4.40;;;;;;;42.19;23.16;98610.28;4806485;29;20186;-90
2023/08/25 15:06:55;;;;;;;5.82;4.57;;;;;;;42.20;24.11;98600.88;4806475;29;20195;-91
2023/08/25 15:09:22;;;;;;;6.85;4.65;;;;;;;42.31;24.36;98607.88;4788585;29;20641;-90
2023/08/25 15:11:48;;;;;;;9.45;4.78;;;;;;;42.17;24.45;98604.25;4806333;29;20186;-89
2023/08/25 15:14:15;;;;;;;5.70;4.18;;;;;;;41.92;24.01;98593.56;4796905;29;20195;-90
2023/08/25 15:16:41;;;;;;;6.47;4.60;;;;;;;41.82;23.93;98599.22;4788303;30;20195;-90
2023/08/25 15:19:08;;;;;;;6.95;4.72;;;;;;;41.84;24.39;98597.00;4788366;30;20689;-90
2023/08/25 15:21:33;;;;;;;8.32;4.75;;;;;;;41.92;24.64;98599.91;4804392;29;20241;-90
2023/08/25 15:24:00;;;;;;;7.43;4.55;;;;;;;41.94;25.29;98600.41;4790513;29;20245;-89
2023/08/25 15:26:27;;;;;;;5.57;4.00;;;;;;;41.90;24.50;98593.06;4806469;29;20197;-89
2023/08/25 15:28:54;;;;;;;6.18;4.38;;;;;;;41.87;23.98;98599.16;4806084;29;20194;-91
2023/08/25 15:31:21;;;;;;;5.95;4.07;;;;;;;41.75;23.26;98596.81;4789682;29;20653;-89
2023/08/25 15:33:48;;;;;;;7.13;4.22;;;;;;;41.65;24.40;98596.94;4788186;30;20266;-89
2023/08/25 15:36:15;;;;;;;5.47;3.72;;;;;;;41.67;24.24;98600.19;4788098;30;20224;-89
2023/08/25 15:38:41;;;;;;;6.57;3.78;;;;;;;41.65;24.70;98595.00;4800108;29;20210;-89
2023/08/25 15:41:11;;;;;;;6.95;4.35;;;;;;;41.63;24.41;98590.91;4806238;29;20224;-90
2023/08/25 15:43:39;;;;;;;6.97;4.82;;;;;;;41.55;25.32;98594.31;4806376;29;20183;-89
2023/08/25 15:46:06;;;;;;;6.80;4.45;;;;;;;41.44;25.57;98593.63;4808155;29;20254;-89
2023/08/25 15:48:34;;;;;;;5.78;3.95;;;;;;;41.33;26.40;98597.59;4811971;29;20713;-89
2023/08/25 15:50:59;;;;;;;5.95;4.25;;;;;;;41.23;26.27;98596.88;4811716;29;20209;-89
2023/08/25 15:53:26;;;;;;;11.52;4.47;;;;;;;41.09;25.73;98585.75;4811813;29;20642;-89
2023/08/25 15:55:53;;;;;;;5.15;3.72;;;;;;;41.01;25.67;98589.16;4811997;29;20214;-90
2023/08/25 15:58:23;;;;;;;5.38;4.10;;;;;;;40.93;25.59;98595.28;4811824;29;20242;-90
2023/08/25 16:01:08;;;;;;;6.03;4.35;;;;;;;40.81;26.13;98594.78;4811776;29;20210;-89
2023/08/25 16:03:35;;;;;;;8.57;4.10;;;;;;;40.67;26.86;98588.34;4812173;29;20170;-90
2023/08/25 16:06:03;;;;;;;6.28;4.32;;;;;;;40.53;27.39;98592.84;4811781;29;20549;-90
2023/08/25 16:08:31;;;;;;;5.72;4.30;;;;;;;40.37;28.31;98590.22;4795951;29;20193;-89
2023/08/25 16:11:07;;;;;;;7.50;4.20;;;;;;;40.17;28.51;98595.88;4811189;29;20269;-89
2023/08/25 16:13:34;;;;;;;6.88;4.57;;;;;;;40.01;28.91;98596.22;4811925;29;20182;-89
2023/08/25 16:16:03;;;;;;;5.40;4.07;;;;;;;39.84;30.56;98599.31;4811971;29;20183;-90
2023/08/25 16:18:30;;;;;;;11.23;4.90;;;;;;;39.69;31.64;98599.41;4797509;29;20229;-90
2023/08/25 16:21:05;;;;;;;8.18;4.72;;;;;;;39.50;31.77;98606.56;4793176;30;20203;-88
2023/08/25 16:23:35;;;;;;;7.97;5.68;;;;;;;39.34;31.21;98603.06;4793870;29;20242;-88
2023/08/25 16:26:03;;;;;;;6.50;4.80;;;;;;;39.21;31.77;98609.13;4794306;30;20160;-88
2023/08/25 16:28:30;;;;;;;8.05;5.85;;;;;;;39.05;32.27;98611.06;4794071;30;20260;-88
2023/08/25 16:31:09;;;;;;;6.97;5.00;;;;;;;38.87;32.41;98619.88;4795829;29;20258;-88
2023/08/25 16:33:36;;;;;;;6.75;5.28;;;;;;;38.72;32.51;98617.13;4795746;29;20634;-89
2023/08/25 16:36:03;;;;;;;11.60;4.70;;;;;;;38.56;32.82;98615.47;4811904;29;20209;-89
2023/08/25 16:38:32;;;;;;;7.55;5.32;;;;;;;38.47;32.80;98620.66;4812413;29;20174;-88
2023/08/25 16:40:57;;;;;;;8.02;5.00;;;;;;;38.25;33.55;98616.50;4804023;29;20379;-89
2023/08/25 16:43:24;;;;;;;6.63;4.88;;;;;;;38.04;33.35;98621.97;4792038;30;20270;-88
2023/08/25 16:45:51;;;;;;;9.70;4.90;;;;;;;37.87;32.74;98615.88;4794960;29;20194;-88
2023/08/25 16:48:20;;;;;;;6.93;4.85;;;;;;;37.84;33.00;98624.59;4811456;29;20534;-89
2023/08/25 16:50:48;;;;;;;7.53;5.03;;;;;;;37.77;32.89;98624.03;4795885;29;20182;-88
2023/08/25 16:53:16;;;;;;;10.20;5.13;;;;;;;37.63;33.81;98614.69;4811509;29;20198;-88
2023/08/25 16:55:43;;;;;;;7.93;5.00;;;;;;;37.38;33.70;98628.19;4810531;29;20178;-88
2023/08/25 16:58:09;;;;;;;10.85;5.28;;;;;;;37.19;34.12;98624.25;4808254;29;20186;-89
2023/08/25 17:00:38;;;;;;;8.18;5.22;;;;;;;37.05;34.38;98617.63;4804872;29;20272;-88
2023/08/25 17:03:05;;;;;;;7.88;5.18;;;;;;;36.91;34.48;98630.88;4800813;29;20560;-88
2023/08/25 17:05:31;;;;;;;8.00;5.60;;;;;;;36.66;34.76;98630.72;4789903;29;20199;-89
2023/08/25 17:07:58;;;;;;;8.93;5.97;;;;;;;36.54;35.04;98627.31;4785541;29;20182;-88
2023/08/25 17:10:25;;;;;;;7.20;5.82;;;;;;;36.36;35.54;98628.50;4808540;29;20175;-88
2023/08/25 17:12:53;;;;;;;8.18;6.50;;;;;;;36.20;35.51;98626.69;4795167;29;20609;-88
2023/08/25 17:15:23;;;;;;;12.52;6.40;;;;;;;36.06;35.60;98630.94;4788331;30;20195;-89
2023/08/25 17:17:50;;;;;;;9.55;6.30;;;;;;;35.87;35.74;98626.84;4776023;29;20198;-89
2023/08/25 17:20:16;;;;;;;8.27;6.00;;;;;;;35.75;36.19;98630.53;4808078;29;20282;-89
2023/08/25 17:22:43;;;;;;;8.27;5.80;;;;;;;35.62;36.34;98635.53;4791968;29;20186;-89
2023/08/25 17:25:11;;;;;;;10.18;6.80;;;;;;;35.51;36.93;98634.56;4807873;29;20198;-88
2023/08/25 17:27:39;;;;;;;8.57;6.38;;;;;;;35.41;36.75;98639.06;4791850;29;20190;-88
2023/08/25 17:30:07;;;;;;;10.30;6.60;;;;;;;35.29;36.83;98639.19;4792254;29;20186;-88
2023/08/25 17:32:35;;;;;;;13.95;6.43;;;;;;;35.19;37.99;98650.75;4788471;29;20285;-89
2023/08/25 17:35:04;;;;;;;10.10;7.28;;;;;;;35.09;38.01;98655.25;4777617;29;20221;-88
2023/08/25 17:37:31;;;;;;;11.95;6.60;;;;;;;34.97;37.50;98659.91;4807625;29;20259;-88
2023/08/25 17:40:03;;;;;;;12.63;6.50;;;;;;;34.96;37.18;98664.53;4788583;29;20234;-89
2023/08/25 17:42:30;;;;;;;12.00;7.45;;;;;;;34.85;37.47;98672.81;4801876;29;20205;-88
2023/08/25 17:44:57;;;;;;;10.68;6.90;;;;;;;34.72;37.91;98664.97;4791690;29;20186;-89
2023/08/25 17:47:25;;;;;;;12.45;7.97;;;;;;;34.61;38.08;98674.84;4791302;29;20217;-88
2023/08/25 17:49:52;;;;;;;15.75;7.85;;;;;;;34.52;38.06;98673.56;4791987;29;20183;-88
2023/08/25 17:52:19;;;;;;;12.93;8.02;;;;;;;34.41;38.53;98667.09;4807299;29;20569;-89
2023/08/25 17:54:46;;;;;;;15.10;7.63;;;;;;;34.32;39.02;98667.75;4806900;29;20190;-88
2023/08/25 17:57:14;;;;;;;14.02;7.80;;;;;;;34.22;38.65;98673.03;4807367;29;20210;-87
2023/08/25 17:59:40;;;;;;;13.98;7.60;;;;;;;34.06;39.31;98673.75;4791370;29;20194;-88
2023/08/25 18:02:06;;;;;;;11.57;7.63;;;;;;;33.90;38.97;98676.19;4807786;29;20198;-88
2023/08/25 18:04:33;;;;;;;11.30;7.22;;;;;;;33.81;39.12;98674.06;4789828;29;20195;-88
2023/08/25 18:06:59;;;;;;;10.95;7.53;;;;;;;33.76;39.08;98682.13;4773911;30;20619;-88
2023/08/25 18:09:26;;;;;;;13.23;8.18;;;;;;;33.65;39.38;98678.34;4804130;29;20187;-88
2023/08/25 18:11:53;;;;;;;9.80;7.63;;;;;;;33.53;40.16;98684.84;4806904;29;20183;-88
2023/08/25 18:14:18;;;;;;;12.40;7.57;;;;;;;33.43;40.76;98680.03;4807894;29;20190;-89
2023/08/25 18:16:45;;;;;;;9.43;7.28;;;;;;;33.37;40.41;98679.09;4806751;29;20275;-88
2023/08/25 18:19:10;;;;;;;10.57;7.18;;;;;;;33.29;40.52;98679.44;4807713;29;20178;-88
2023/08/25 18:21:38;;;;;;;10.27;7.45;;;;;;;33.23;40.77;98685.03;4806353;29;20206;-88
2023/08/25 18:24:05;;;;;;;10.15;7.40;;;;;;;33.18;41.47;98691.13;4807493;29;20201;-88
2023/08/25 18:26:32;;;;;;;12.85;8.60;;;;;;;32.92;40.32;98704.31;4791281;29;20229;-88
2023/08/25 18:29:00;;;;;;;8.98;6.65;;;;;;;32.87;38.83;98707.72;4791514;29;20334;-88
2023/08/25 18:31:28;;;;;;;11.23;6.82;;;;;;;32.85;39.48;98704.44;4807143;29;20246;-88
2023/08/25 18:33:54;;;;;;;10.80;5.60;;;;;;;32.52;39.59;98712.22;4806010;29;20713;-87
2023/08/25 18:36:20;;;;;;;7.20;4.07;;;;;;;32.37;37.88;98722.66;4806402;29;20178;-88
2023/08/25 18:38:46;;;;;;;6.43;4.03;;;;;;;32.46;37.68;98726.72;4791274;29;20254;-87
2023/08/25 18:41:12;;;;;;;7.00;3.78;;;;;;;32.51;37.13;98727.69;4806714;29;20245;-88
2023/08/25 18:43:39;;;;;;;7.68;3.67;;;;;;;32.42;37.05;98725.50;4806903;29;20198;-88
2023/08/25 18:46:06;;;;;;;8.98;3.92;;;;;;;32.41;37.21;98730.13;4796749;29;20708;-87
2023/08/25 18:48:33;;;;;;;8.02;4.82;;;;;;;32.32;37.63;98733.38;4788789;30;20194;-88
2023/08/25 18:51:07;;;;;;;9.45;4.50;;;;;;;32.29;37.71;98739.25;4788793;30;20187;-88
2023/08/25 18:53:33;;;;;;;7.70;5.43;;;;;;;32.31;38.23;98734.44;4790263;29;20206;-87
2023/08/25 18:55:58;;;;;;;11.70;5.50;;;;;;;32.49;37.86;98729.81;4800585;29;20191;-87
2023/08/25 18:58:25;;;;;;;12.88;5.57;;;;;;;32.50;37.22;98731.44;4788651;30;20251;-87
2023/08/25 19:00:51;;;;;;;10.77;5.03;;;;;;;32.45;37.95;98734.03;4793053;29;20621;-87
2023/08/25 19:03:19;;;;;;;10.80;4.97;;;;;;;32.39;37.35;98737.66;4787886;30;20218;-87
2023/08/25 19:05:46;;;;;;;10.68;4.15;;;;;;;32.44;37.60;98745.13;4787897;30;20187;-87
2023/08/25 19:08:13;;;;;;;4.85;3.55;;;;;;;32.42;37.35;98747.22;4791889;29;20622;-88
2023/08/25 19:10:40;;;;;;;6.13;3.45;;;;;;;32.23;38.13;98736.41;4789018;30;20191;-87
2023/08/25 19:13:07;;;;;;;4.93;3.30;;;;;;;32.37;37.54;98749.78;4801724;29;20204;-87
2023/08/25 19:15:34;;;;;;;8.73;3.42;;;;;;;32.41;37.22;98751.84;4806632;29;20266;-87
2023/08/25 19:17:59;;;;;;;8.27;3.65;;;;;;;32.49;37.42;98751.53;4806947;29;20188;-88
2023/08/25 19:20:25;;;;;;;6.53;3.03;;;;;;;32.50;36.94;98749.59;4805938;29;20366;-87
2023/08/25 19:22:50;;;;;;;4.93;2.95;;;;;;;32.46;37.06;98754.69;4806111;29;20561;-88
2023/08/25 19:25:16;;;;;;;8.23;3.13;;;;;;;32.45;36.52;98757.59;4791842;29;20191;-88
2023/08/25 19:27:46;;;;;;;4.43;2.45;;;;;;;32.42;37.18;98758.91;4798644;29;20201;-87
2023/08/25 19:30:13;;;;;;;8.40;2.97;;;;;;;32.39;36.60;98755.84;4804593;29;20215;-88
2023/08/25 19:32:40;;;;;;;3.85;2.55;;;;;;;32.41;37.12;98754.56;4804862;29;20255;-88
2023/08/25 19:35:07;;;;;;;6.57;2.60;;;;;;;32.33;36.74;98759.47;4805564;29;20258;-88
2023/08/25 19:37:35;;;;;;;5.55;2.58;;;;;;;32.34;37.07;98761.13;4789468;29;20258;-88
2023/08/25 19:40:09;;;;;;;5.05;2.88;;;;;;;32.25;37.26;98757.06;4805582;29;20217;-88
2023/08/25 19:42:36;;;;;;;5.13;2.95;;;;;;;32.25;36.97;98757.06;4790243;29;20688;-88
2023/08/25 19:45:03;;;;;;;8.48;3.20;;;;;;;32.31;37.30;98767.00;4790428;29;20574;-87
2023/08/25 19:47:30;;;;;;;6.85;2.85;;;;;;;32.34;37.66;98767.34;4805165;29;20637;-87
2023/08/25 19:49:57;;;;;;;5.25;3.08;;;;;;;32.28;37.36;98762.03;4805807;29;20194;-87
2023/08/25 19:52:24;;;;;;;5.97;2.90;;;;;;;32.29;37.24;98760.94;4806054;29;20650;-88
2023/08/25 19:54:52;;;;;;;8.18;3.15;;;;;;;32.30;37.32;98762.63;4806276;29;20234;-87
2023/08/25 19:57:19;;;;;;;7.22;3.08;;;;;;;32.28;37.51;98762.03;4806141;29;20195;-87
2023/08/25 19:59:45;;;;;;;5.65;3.05;;;;;;;32.23;37.88;98763.53;4805834;29;20282;-87
2023/08/25 20:02:12;;;;;;;4.13;2.65;;;;;;;32.21;37.78;98768.34;4805910;29;20206;-88
2023/08/25 20:04:38;;;;;;;13.65;3.20;;;;;;;32.13;37.40;98755.09;4806432;29;20609;-88
2023/08/25 20:07:06;;;;;;;4.70;2.47;;;;;;;31.90;37.71;98754.94;4805944;29;20183;-88
2023/08/25 20:09:35;;;;;;;5.95;2.78;;;;;;;31.85;37.97;98752.09;4805294;29;20207;-87
2023/08/25 20:12:02;;;;;;;5.22;2.60;;;;;;;31.90;37.70;98752.22;4791077;29;20281;-88
2023/08/25 20:14:28;;;;;;;4.55;2.83;;;;;;;31.88;37.80;98748.91;4805715;29;20198;-87
2023/08/25 20:16:56;;;;;;;4.93;2.55;;;;;;;31.92;37.87;98749.31;4806155;29;20220;-88
2023/08/25 20:19:23;;;;;;;5.68;2.97;;;;;;;31.94;38.15;98749.91;4806396;29;20191;-87
2023/08/25 20:21:50;;;;;;;6.32;2.90;;;;;;;31.99;38.27;98741.91;4789597;29;20210;-87
2023/08/25 20:24:15;;;;;;;5.63;2.65;;;;;;;31.94;38.11;98753.44;4806300;29;20198;-88
2023/08/25 20:26:42;;;;;;;3.80;2.25;;;;;;;31.87;38.17;98759.97;4805750;29;20190;-87
2023/08/25 20:29:10;;;;;;;3.63;2.20;;;;;;;31.83;37.95;98759.63;4805765;29;20182;-88
2023/08/25 20:31:36;;;;;;;5.07;2.33;;;;;;;31.73;37.80;98755.78;4805461;29;20634;-87
2023/08/25 20:34:03;;;;;;;4.78;2.20;;;;;;;31.79;37.67;98757.59;4807989;29;20235;-87
2023/08/25 20:36:29;;;;;;;4.55;2.50;;;;;;;31.67;37.30;98759.38;4792947;29;20210;-87
2023/08/25 20:38:56;;;;;;;3.88;2.00;;;;;;;31.63;37.65;98770.66;4808917;29;20218;-87
2023/08/25 20:41:22;;;;;;;6.50;2.20;;;;;;;31.44;37.55;98773.53;4808110;29;20286;-88
2023/08/25 20:43:48;;;;;;;4.63;2.63;;;;;;;31.46;37.18;98775.00;4808913;29;20194;-87
2023/08/25 20:46:19;;;;;;;3.70;1.83;;;;;;;31.52;36.60;98770.59;4808120;29;20194;-87
2023/08/25 20:48:47;;;;;;;6.30;1.98;;;;;;;31.55;36.45;98768.22;4809279;29;20221;-87
2023/08/25 20:51:22;;;;;;;8.02;2.58;;;;;;;31.49;37.00;98768.31;4807732;29;20567;-87
2023/08/25 20:53:51;;;;;;;4.10;2.40;;;;;;;31.54;37.05;98771.19;4807719;29;20197;-87
2023/08/25 20:56:17;;;;;;;6.68;1.98;;;;;;;31.53;36.75;98775.75;4793045;29;20678;-87
2023/08/25 20:58:43;;;;;;;6.22;2.33;;;;;;;31.52;37.11;98774.13;4808532;29;20199;-87
2023/08/25 21:01:09;;;;;;;5.88;2.13;;;;;;;31.53;36.94;98774.94;4792202;29;20218;-87
2023/08/25 21:03:36;;;;;;;6.70;1.58;;;;;;;31.56;37.88;98793.47;4808602;29;20201;-87